createdAt,value
2017-12-15T00:00:47.743Z,3.75
2017-12-15T00:01:47.665Z,3.79
2017-12-15T00:03:40.993Z,3.79
2017-12-15T00:04:40.849Z,3.76
2017-12-15T00:06:34.119Z,3.69
2017-12-15T00:07:34.029Z,3.61
2017-12-15T00:09:27.273Z,3.66
2017-12-15T00:10:27.198Z,3.71
2017-12-15T00:12:20.471Z,3.69
2017-12-15T00:13:20.380Z,3.72
2017-12-15T00:15:13.639Z,3.74
2017-12-15T00:16:13.560Z,3.74
2017-12-15T00:18:06.827Z,3.63
2017-12-15T00:19:06.745Z,3.71
2017-12-15T00:20:59.994Z,3.74
2017-12-15T00:21:59.920Z,3.74
2017-12-15T00:23:53.191Z,3.82
2017-12-15T00:24:53.100Z,3.74
2017-12-15T00:26:46.374Z,3.71
2017-12-15T00:27:46.282Z,3.67
2017-12-15T00:29:39.537Z,3.74
2017-12-15T00:30:39.465Z,3.71
2017-12-15T00:32:32.734Z,3.71
2017-12-15T00:33:32.653Z,3.67
2017-12-15T00:35:25.893Z,3.75
2017-12-15T00:36:25.824Z,3.81
2017-12-15T00:38:19.096Z,3.82
2017-12-15T00:39:19.006Z,3.71
2017-12-15T00:41:12.262Z,3.72
2017-12-15T00:42:12.186Z,3.72
2017-12-15T00:44:05.458Z,3.69
2017-12-15T00:45:05.366Z,3.81
2017-12-15T00:46:58.635Z,3.75
2017-12-15T00:47:58.544Z,3.67
2017-12-15T00:49:51.794Z,3.74
2017-12-15T00:50:51.730Z,3.67
2017-12-15T00:52:44.998Z,3.71
2017-12-15T00:53:44.907Z,3.67
2017-12-15T00:55:38.158Z,3.66
2017-12-15T00:56:38.086Z,3.71
2017-12-15T00:58:31.362Z,3.74
2017-12-15T00:59:31.264Z,3.69
2017-12-15T01:01:24.516Z,3.64
2017-12-15T01:02:24.445Z,3.69
2017-12-15T01:04:17.713Z,3.72
2017-12-15T01:05:17.624Z,3.69
2017-12-15T01:07:10.895Z,3.76
2017-12-15T01:08:10.799Z,3.71
2017-12-15T01:10:04.062Z,3.69
2017-12-15T01:11:03.994Z,3.67
2017-12-15T01:12:57.259Z,3.72
2017-12-15T01:13:57.169Z,3.71
2017-12-15T01:15:50.420Z,3.72
2017-12-15T01:16:50.347Z,3.71
2017-12-15T01:18:43.623Z,3.76
2017-12-15T01:19:43.527Z,3.69
2017-12-15T01:21:36.779Z,3.79
2017-12-15T01:22:36.708Z,3.78
2017-12-15T01:24:29.968Z,3.84
2017-12-15T01:25:29.878Z,3.74
2017-12-15T01:27:23.147Z,3.76
2017-12-15T01:28:23.056Z,3.84
2017-12-15T01:30:16.386Z,3.78
2017-12-15T01:31:16.296Z,3.81
2017-12-15T01:33:09.566Z,3.78
2017-12-15T01:34:09.472Z,3.74
2017-12-15T01:36:02.724Z,3.74
2017-12-15T01:37:02.660Z,3.76
2017-12-15T01:38:55.923Z,3.76
2017-12-15T01:39:55.831Z,3.66
2017-12-15T01:41:49.088Z,3.78
2017-12-15T01:42:49.022Z,3.71
2017-12-15T01:44:42.284Z,3.79
2017-12-15T01:45:42.195Z,3.81
2017-12-15T01:47:35.457Z,3.85
2017-12-15T01:48:35.367Z,3.72
2017-12-15T01:50:28.616Z,3.78
2017-12-15T01:51:28.544Z,3.78
2017-12-15T01:53:21.820Z,3.76
2017-12-15T01:54:21.723Z,3.74
2017-12-15T01:56:14.975Z,3.81
2017-12-15T01:57:14.907Z,3.71
2017-12-15T01:59:08.168Z,3.76
2017-12-15T02:00:08.075Z,3.74
2017-12-15T02:02:00.832Z,3.81
2017-12-15T02:03:00.758Z,3.74
2017-12-15T02:04:54.017Z,3.75
2017-12-15T02:05:53.925Z,3.76
2017-12-15T02:07:47.197Z,3.81
2017-12-15T02:08:47.111Z,3.74
2017-12-15T02:10:40.377Z,3.74
2017-12-15T02:11:40.308Z,3.69
2017-12-15T02:13:33.568Z,3.81
2017-12-15T02:14:33.471Z,3.76
2017-12-15T02:16:26.728Z,3.72
2017-12-15T02:17:26.654Z,3.79
2017-12-15T02:19:19.911Z,3.79
2017-12-15T02:20:19.822Z,3.85
2017-12-15T02:22:13.077Z,3.84
2017-12-15T02:23:13.002Z,3.85
2017-12-15T02:25:06.275Z,3.75
2017-12-15T02:26:06.184Z,3.75
2017-12-15T02:27:59.454Z,3.90
2017-12-15T02:28:59.371Z,3.85
2017-12-15T02:30:52.117Z,3.82
2017-12-15T02:31:52.044Z,3.79
2017-12-15T02:33:45.304Z,3.75
2017-12-15T02:34:45.212Z,3.66
2017-12-15T02:36:38.467Z,3.89
2017-12-15T02:37:38.407Z,3.90
2017-12-15T02:39:31.656Z,3.82
2017-12-15T02:40:31.568Z,3.92
2017-12-15T02:42:24.847Z,3.84
2017-12-15T02:43:24.750Z,3.82
2017-12-15T02:45:17.992Z,3.79
2017-12-15T02:46:17.915Z,3.85
2017-12-15T02:48:11.189Z,3.84
2017-12-15T02:49:11.095Z,3.86
2017-12-15T02:51:04.376Z,3.86
2017-12-15T02:52:04.303Z,3.84
2017-12-15T02:53:57.574Z,3.86
2017-12-15T02:54:57.486Z,3.78
2017-12-15T02:56:50.736Z,3.78
2017-12-15T02:57:50.663Z,3.75
2017-12-15T02:59:43.930Z,3.79
2017-12-15T03:00:43.849Z,3.82
2017-12-15T03:02:37.095Z,3.74
2017-12-15T03:03:37.004Z,3.67
2017-12-15T03:05:30.302Z,3.81
2017-12-15T03:06:30.171Z,3.75
2017-12-15T03:08:23.434Z,3.81
2017-12-15T03:09:23.339Z,3.76
2017-12-15T03:11:16.590Z,3.81
2017-12-15T03:12:16.518Z,3.81
2017-12-15T03:14:09.788Z,3.85
2017-12-15T03:15:09.698Z,3.82
2017-12-15T03:17:02.961Z,3.81
2017-12-15T03:18:02.887Z,3.72
2017-12-15T03:19:56.152Z,3.74
2017-12-15T03:20:56.057Z,3.71
2017-12-15T03:22:49.395Z,3.69
2017-12-15T03:23:49.304Z,3.71
2017-12-15T03:25:42.549Z,3.72
2017-12-15T03:26:42.473Z,3.69
2017-12-15T03:28:35.740Z,3.66
2017-12-15T03:29:35.647Z,3.71
2017-12-15T03:31:28.908Z,3.67
2017-12-15T03:32:28.832Z,3.72
2017-12-15T03:34:22.102Z,3.61
2017-12-15T03:35:22.010Z,3.71
2017-12-15T03:37:15.264Z,3.66
2017-12-15T03:38:15.193Z,3.78
2017-12-15T03:40:08.455Z,3.69
2017-12-15T03:41:08.361Z,3.66
2017-12-15T03:43:01.634Z,3.67
2017-12-15T03:44:01.542Z,3.72
2017-12-15T03:45:54.794Z,3.69
2017-12-15T03:46:54.720Z,3.69
2017-12-15T03:48:47.995Z,3.58
2017-12-15T03:49:47.902Z,3.66
2017-12-15T03:51:42.146Z,3.66
2017-12-15T03:52:42.072Z,3.60
2017-12-15T03:54:35.341Z,3.56
2017-12-15T03:55:35.248Z,3.61
2017-12-15T03:57:28.504Z,3.56
2017-12-15T03:58:28.434Z,3.56
2017-12-15T04:00:21.702Z,3.58
2017-12-15T04:01:21.611Z,3.53
2017-12-15T04:03:14.886Z,3.40
2017-12-15T04:04:14.789Z,3.53
2017-12-15T04:06:08.041Z,3.39
2017-12-15T04:07:07.965Z,3.42
2017-12-15T04:09:01.261Z,3.39
2017-12-15T04:10:01.150Z,3.46
2017-12-15T04:11:54.399Z,3.49
2017-12-15T04:12:54.326Z,3.45
2017-12-15T04:14:47.587Z,3.40
2017-12-15T04:15:47.500Z,3.32
2017-12-15T04:17:40.734Z,3.34
2017-12-15T04:18:40.660Z,3.24
2017-12-15T04:20:33.934Z,3.24
2017-12-15T04:21:33.845Z,3.23
2017-12-15T04:23:27.111Z,3.34
2017-12-15T04:24:27.018Z,3.26
2017-12-15T04:26:20.374Z,3.29
2017-12-15T04:27:20.303Z,3.29
2017-12-15T04:29:13.562Z,3.30
2017-12-15T04:30:13.470Z,3.34
2017-12-15T04:32:06.720Z,3.20
2017-12-15T04:33:06.648Z,3.29
2017-12-15T04:34:59.916Z,3.26
2017-12-15T04:35:59.828Z,3.37
2017-12-15T04:37:53.077Z,3.24
2017-12-15T04:38:53.004Z,3.24
2017-12-15T04:40:46.270Z,3.21
2017-12-15T04:41:46.180Z,3.14
2017-12-15T04:43:39.449Z,3.24
2017-12-15T04:44:39.357Z,3.23
2017-12-15T04:46:32.611Z,3.30
2017-12-15T04:47:32.537Z,3.26
2017-12-15T04:49:25.798Z,3.30
2017-12-15T04:50:25.704Z,3.26
2017-12-15T04:52:18.954Z,3.34
2017-12-15T04:53:18.882Z,3.32
2017-12-15T04:55:12.157Z,3.24
2017-12-15T04:56:12.062Z,3.29
2017-12-15T04:58:05.316Z,3.26
2017-12-15T04:59:05.239Z,3.24
2017-12-15T05:00:58.515Z,3.27
2017-12-15T05:01:58.419Z,3.35
2017-12-15T05:03:51.689Z,3.23
2017-12-15T05:04:51.597Z,3.29
2017-12-15T05:06:44.838Z,3.35
2017-12-15T05:07:44.764Z,3.32
2017-12-15T05:09:38.024Z,3.39
2017-12-15T05:10:37.932Z,3.32
2017-12-15T05:12:31.184Z,3.42
2017-12-15T05:13:31.113Z,3.24
2017-12-15T05:15:24.396Z,3.27
2017-12-15T05:16:24.304Z,3.30
2017-12-15T05:18:17.557Z,3.34
2017-12-15T05:19:17.477Z,3.26
2017-12-15T05:21:10.750Z,3.26
2017-12-15T05:22:10.661Z,3.26
2017-12-15T05:24:03.920Z,3.26
2017-12-15T05:25:03.829Z,3.30
2017-12-15T05:26:57.083Z,3.26
2017-12-15T05:27:57.005Z,3.27
2017-12-15T05:29:50.274Z,3.43
2017-12-15T05:30:50.176Z,3.40
2017-12-15T05:32:43.428Z,3.42
2017-12-15T05:33:43.350Z,3.45
2017-12-15T05:35:36.626Z,3.39
2017-12-15T05:36:36.533Z,3.40
2017-12-15T05:38:29.784Z,3.40
2017-12-15T05:39:29.712Z,3.40
2017-12-15T05:41:22.984Z,3.42
2017-12-15T05:42:22.894Z,3.35
2017-12-15T05:44:16.160Z,3.24
2017-12-15T05:45:16.072Z,3.37
2017-12-15T05:47:10.171Z,3.24
2017-12-15T05:48:10.100Z,3.40
2017-12-15T05:50:03.373Z,3.40
2017-12-15T05:51:03.279Z,3.40
2017-12-15T05:52:56.531Z,3.40
2017-12-15T05:53:56.459Z,3.26
2017-12-15T05:55:49.732Z,3.40
2017-12-15T05:56:49.640Z,3.45
2017-12-15T05:58:42.895Z,3.43
2017-12-15T05:59:42.817Z,3.35
2017-12-15T06:01:36.093Z,3.39
2017-12-15T06:02:36.000Z,3.35
2017-12-15T06:04:29.270Z,3.45
2017-12-15T06:05:29.180Z,3.43
2017-12-15T06:07:22.431Z,3.37
2017-12-15T06:08:22.359Z,3.37
2017-12-15T06:10:15.633Z,3.39
2017-12-15T06:11:15.536Z,3.42
2017-12-15T06:13:08.794Z,3.53
2017-12-15T06:14:08.721Z,3.39
2017-12-15T06:16:01.983Z,3.35
2017-12-15T06:17:01.900Z,3.40
2017-12-15T06:18:55.152Z,3.40
2017-12-15T06:19:55.079Z,3.45
2017-12-15T06:21:48.351Z,3.53
2017-12-15T06:22:48.257Z,3.56
2017-12-15T06:24:41.542Z,3.63
2017-12-15T06:25:41.450Z,3.58
2017-12-15T06:27:34.699Z,3.61
2017-12-15T06:28:34.626Z,3.60
2017-12-15T06:30:27.899Z,3.69
2017-12-15T06:31:27.805Z,3.66
2017-12-15T06:33:21.057Z,3.69
2017-12-15T06:34:20.984Z,3.66
2017-12-15T06:36:14.257Z,3.58
2017-12-15T06:37:14.171Z,3.57
2017-12-15T06:39:07.409Z,3.64
2017-12-15T06:40:07.337Z,3.66
2017-12-15T06:42:00.610Z,3.63
2017-12-15T06:43:00.520Z,3.63
2017-12-15T06:44:53.791Z,3.74
2017-12-15T06:45:53.698Z,3.69
2017-12-15T06:47:46.956Z,3.63
2017-12-15T06:48:46.879Z,3.71
2017-12-15T06:50:40.149Z,3.71
2017-12-15T06:51:40.059Z,3.75
2017-12-15T06:53:33.382Z,3.67
2017-12-15T06:54:33.308Z,3.72
2017-12-15T06:56:26.583Z,3.69
2017-12-15T06:57:26.490Z,3.71
2017-12-15T06:59:19.734Z,3.72
2017-12-15T07:00:19.662Z,3.71
2017-12-15T07:02:12.936Z,3.67
2017-12-15T07:03:12.844Z,3.67
2017-12-15T07:05:06.121Z,3.66
2017-12-15T07:06:06.026Z,3.64
2017-12-15T07:07:59.283Z,3.67
2017-12-15T07:08:59.202Z,3.69
2017-12-15T07:10:52.473Z,3.54
2017-12-15T07:11:52.383Z,3.69
2017-12-15T07:13:45.641Z,3.61
2017-12-15T07:14:45.562Z,3.60
2017-12-15T07:16:38.833Z,3.58
2017-12-15T07:17:38.742Z,3.60
2017-12-15T07:19:31.985Z,3.57
2017-12-15T07:20:31.911Z,3.56
2017-12-15T07:22:25.183Z,3.64
2017-12-15T07:23:25.092Z,3.67
2017-12-15T07:25:18.364Z,3.67
2017-12-15T07:26:18.273Z,3.72
2017-12-15T07:28:11.525Z,3.66
2017-12-15T07:29:11.453Z,3.72
2017-12-15T07:31:04.723Z,3.66
2017-12-15T07:32:04.651Z,3.64
2017-12-15T07:33:57.886Z,3.69
2017-12-15T07:34:57.812Z,3.69
2017-12-15T07:36:51.083Z,3.69
2017-12-15T07:37:50.991Z,3.69
2017-12-15T07:39:44.239Z,3.69
2017-12-15T07:40:44.166Z,3.69
2017-12-15T07:42:37.437Z,3.74
2017-12-15T07:43:37.342Z,3.74
2017-12-15T07:45:30.613Z,3.75
2017-12-15T07:46:30.521Z,3.76
2017-12-15T07:48:23.779Z,3.76
2017-12-15T07:49:23.705Z,3.78
2017-12-15T07:51:16.974Z,3.75
2017-12-15T07:52:16.884Z,3.86
2017-12-15T07:54:10.145Z,3.86
2017-12-15T07:55:10.072Z,3.85
2017-12-15T07:57:03.393Z,3.90
2017-12-15T07:58:03.334Z,3.85
2017-12-15T07:59:56.579Z,4.02
2017-12-15T08:00:56.495Z,3.93
2017-12-15T08:02:49.766Z,3.86
2017-12-15T08:03:49.674Z,3.99
2017-12-15T08:05:42.951Z,3.93
2017-12-15T08:06:42.860Z,3.94
2017-12-15T08:08:36.112Z,3.94
2017-12-15T08:09:36.040Z,3.99
2017-12-15T08:11:29.396Z,3.92
2017-12-15T08:12:29.306Z,3.90
2017-12-15T08:14:22.556Z,3.90
2017-12-15T08:15:22.487Z,3.86
2017-12-15T08:17:15.761Z,3.79
2017-12-15T08:18:15.670Z,3.84
2017-12-15T08:20:08.925Z,3.85
2017-12-15T08:21:08.850Z,3.84
2017-12-15T08:23:02.138Z,3.94
2017-12-15T08:24:02.031Z,4.02
2017-12-15T08:25:55.394Z,4.10
2017-12-15T08:26:55.303Z,4.07
2017-12-15T08:28:48.597Z,4.04
2017-12-15T08:29:48.487Z,4.03
2017-12-15T08:31:41.756Z,4.14
2017-12-15T08:32:41.666Z,4.20
2017-12-15T08:34:34.925Z,4.18
2017-12-15T08:35:34.845Z,4.12
2017-12-15T08:37:28.127Z,4.14
2017-12-15T08:38:28.032Z,4.12
2017-12-15T08:40:21.379Z,4.14
2017-12-15T08:41:21.307Z,4.11
2017-12-15T08:43:14.595Z,4.03
2017-12-15T08:44:14.489Z,4.07
2017-12-15T08:46:07.758Z,4.12
2017-12-15T08:47:07.699Z,3.99
2017-12-15T08:49:00.925Z,4.03
2017-12-15T08:50:00.850Z,3.93
2017-12-15T08:51:54.122Z,4.00
2017-12-15T08:52:54.031Z,4.07
2017-12-15T08:54:47.379Z,3.99
2017-12-15T08:55:47.305Z,4.07
2017-12-15T08:57:40.566Z,4.00
2017-12-15T08:58:40.476Z,4.02
2017-12-15T09:00:33.719Z,4.02
2017-12-15T09:01:33.646Z,4.14
2017-12-15T09:03:26.908Z,4.10
2017-12-15T09:04:26.814Z,4.04
2017-12-15T09:06:20.076Z,3.92
2017-12-15T09:07:19.986Z,4.02
2017-12-15T09:09:14.231Z,4.08
2017-12-15T09:10:14.157Z,4.08
2017-12-15T09:12:08.415Z,4.04
2017-12-15T09:13:08.323Z,4.04
2017-12-15T09:15:01.627Z,4.02
2017-12-15T09:16:01.495Z,4.10
2017-12-15T09:17:54.756Z,4.20
2017-12-15T09:18:54.663Z,4.20
2017-12-15T09:20:47.911Z,4.12
2017-12-15T09:21:47.840Z,4.15
2017-12-15T09:23:41.099Z,4.14
2017-12-15T09:24:41.008Z,4.10
2017-12-15T09:26:34.287Z,4.12
2017-12-15T09:27:34.202Z,4.21
2017-12-15T09:29:27.435Z,4.24
2017-12-15T09:30:27.361Z,4.39
2017-12-15T09:32:20.626Z,4.46
2017-12-15T09:33:20.534Z,4.48
2017-12-15T09:35:13.813Z,4.47
2017-12-15T09:36:13.716Z,4.39
2017-12-15T09:38:06.984Z,4.48
2017-12-15T09:39:06.891Z,4.50
2017-12-15T09:41:00.146Z,4.53
2017-12-15T09:42:00.074Z,4.64
2017-12-15T09:43:53.343Z,4.64
2017-12-15T09:44:53.252Z,4.74
2017-12-15T09:46:46.510Z,4.78
2017-12-15T09:47:46.419Z,4.71
2017-12-15T09:49:39.662Z,4.83
2017-12-15T09:50:39.592Z,4.79
2017-12-15T09:52:32.873Z,4.74
2017-12-15T09:53:32.766Z,4.76
2017-12-15T09:55:26.026Z,4.78
2017-12-15T09:56:25.951Z,4.90
2017-12-15T09:58:19.214Z,4.65
2017-12-15T09:59:19.120Z,4.65
2017-12-15T10:01:12.375Z,4.66
2017-12-15T10:02:12.292Z,4.66
2017-12-15T10:04:05.567Z,4.64
2017-12-15T10:05:05.477Z,4.65
2017-12-15T10:06:58.741Z,4.57
2017-12-15T10:07:58.649Z,4.60
2017-12-15T10:09:51.893Z,4.64
2017-12-15T10:10:51.824Z,4.65
2017-12-15T10:12:45.088Z,4.66
2017-12-15T10:13:45.000Z,4.71
2017-12-15T10:15:37.758Z,4.76
2017-12-15T10:16:37.677Z,4.78
2017-12-15T10:18:30.944Z,4.91
2017-12-15T10:19:30.852Z,4.87
2017-12-15T10:21:24.106Z,4.91
2017-12-15T10:22:24.035Z,4.92
2017-12-15T10:24:17.398Z,4.87
2017-12-15T10:25:17.308Z,4.85
2017-12-15T10:27:10.569Z,4.92
2017-12-15T10:28:10.480Z,4.94
2017-12-15T10:30:03.778Z,4.92
2017-12-15T10:31:03.653Z,4.98
2017-12-15T10:32:56.916Z,5.10
2017-12-15T10:33:56.821Z,5.13
2017-12-15T10:35:50.068Z,5.13
2017-12-15T10:36:49.994Z,5.23
2017-12-15T10:38:43.275Z,5.20
2017-12-15T10:39:43.184Z,5.28
2017-12-15T10:41:36.430Z,5.31
2017-12-15T10:42:36.357Z,5.42
2017-12-15T10:44:29.618Z,5.41
2017-12-15T10:45:29.530Z,5.41
2017-12-15T10:47:22.792Z,5.54
2017-12-15T10:48:22.700Z,5.41
2017-12-15T10:50:15.947Z,5.57
2017-12-15T10:51:15.877Z,5.52
2017-12-15T10:53:09.142Z,5.57
2017-12-15T10:54:09.047Z,5.51
2017-12-15T10:56:02.297Z,5.59
2017-12-15T10:57:02.234Z,5.63
2017-12-15T10:58:55.499Z,5.78
2017-12-15T10:59:55.405Z,5.70
2017-12-15T11:01:48.650Z,5.88
2017-12-15T11:02:48.578Z,5.91
2017-12-15T11:04:41.851Z,5.77
2017-12-15T11:05:41.761Z,6.02
2017-12-15T11:07:35.024Z,6.10
2017-12-15T11:08:34.935Z,6.14
2017-12-15T11:10:28.184Z,6.00
2017-12-15T11:11:28.109Z,6.09
2017-12-15T11:13:21.400Z,6.14
2017-12-15T11:14:21.313Z,6.34
2017-12-15T11:16:14.557Z,6.39
2017-12-15T11:17:14.486Z,6.40
2017-12-15T11:19:07.754Z,6.24
2017-12-15T11:20:07.662Z,6.24
2017-12-15T11:22:00.910Z,6.29
2017-12-15T11:23:00.839Z,6.24
2017-12-15T11:24:54.104Z,6.09
2017-12-15T11:25:54.024Z,6.02
2017-12-15T11:27:47.289Z,5.99
2017-12-15T11:28:47.201Z,5.95
2017-12-15T11:30:41.446Z,5.77
2017-12-15T11:31:41.378Z,5.72
2017-12-15T11:33:34.640Z,5.85
2017-12-15T11:34:34.552Z,5.85
2017-12-15T11:36:27.807Z,5.81
2017-12-15T11:37:27.740Z,5.80
2017-12-15T11:39:21.009Z,5.70
2017-12-15T11:40:20.915Z,5.72
2017-12-15T11:42:14.160Z,5.73
2017-12-15T11:43:14.088Z,5.66
2017-12-15T11:45:07.406Z,5.62
2017-12-15T11:46:07.348Z,5.75
2017-12-15T11:48:00.576Z,5.70
2017-12-15T11:49:00.487Z,5.77
2017-12-15T11:50:53.737Z,5.75
2017-12-15T11:51:53.661Z,5.70
2017-12-15T11:53:46.927Z,5.72
2017-12-15T11:54:46.837Z,5.64
2017-12-15T11:56:40.085Z,5.73
2017-12-15T11:57:40.014Z,5.72
2017-12-15T11:59:33.280Z,5.72
2017-12-15T12:00:33.184Z,5.77
2017-12-15T12:02:26.434Z,5.81
2017-12-15T12:03:26.363Z,5.75
2017-12-15T12:05:19.636Z,5.81
2017-12-15T12:06:19.545Z,5.82
2017-12-15T12:08:12.819Z,5.69
2017-12-15T12:09:12.732Z,5.62
2017-12-15T12:11:05.970Z,5.69
2017-12-15T12:12:05.903Z,5.59
2017-12-15T12:13:59.168Z,5.72
2017-12-15T12:14:59.076Z,5.72
2017-12-15T12:16:52.322Z,5.89
2017-12-15T12:17:52.253Z,5.84
2017-12-15T12:19:45.516Z,5.78
2017-12-15T12:20:45.427Z,5.85
2017-12-15T12:22:38.671Z,5.96
2017-12-15T12:23:38.598Z,5.95
2017-12-15T12:25:31.875Z,6.02
2017-12-15T12:26:31.784Z,6.03
2017-12-15T12:28:25.049Z,5.95
2017-12-15T12:29:24.962Z,5.92
2017-12-15T12:31:18.205Z,5.84
2017-12-15T12:32:18.134Z,5.81
2017-12-15T12:34:11.413Z,5.69
2017-12-15T12:35:11.315Z,5.81
2017-12-15T12:37:04.560Z,5.78
2017-12-15T12:38:04.492Z,5.80
2017-12-15T12:39:57.776Z,5.69
2017-12-15T12:40:57.684Z,5.52
2017-12-15T12:42:50.930Z,5.54
2017-12-15T12:43:50.865Z,5.60
2017-12-15T12:45:44.988Z,5.70
2017-12-15T12:46:44.896Z,5.66
2017-12-15T12:48:38.163Z,5.62
2017-12-15T12:49:38.068Z,5.62
2017-12-15T12:51:31.386Z,5.62
2017-12-15T12:52:31.318Z,5.69
2017-12-15T12:54:24.578Z,5.69
2017-12-15T12:55:24.492Z,5.62
2017-12-15T12:57:17.736Z,5.62
2017-12-15T12:58:17.667Z,5.60
2017-12-15T13:00:10.942Z,5.60
2017-12-15T13:01:10.874Z,5.59
2017-12-15T13:03:04.100Z,5.63
2017-12-15T13:04:04.027Z,5.66
2017-12-15T13:05:57.423Z,5.64
2017-12-15T13:06:57.315Z,5.64
2017-12-15T13:08:50.575Z,5.59
2017-12-15T13:09:50.486Z,5.63
2017-12-15T13:11:43.733Z,5.62
2017-12-15T13:12:43.669Z,5.55
2017-12-15T13:14:36.927Z,5.55
2017-12-15T13:15:36.838Z,5.69
2017-12-15T13:17:30.084Z,5.70
2017-12-15T13:18:30.016Z,5.67
2017-12-15T13:20:23.278Z,5.69
2017-12-15T13:21:23.190Z,5.73
2017-12-15T13:23:16.482Z,5.78
2017-12-15T13:24:16.374Z,5.77
2017-12-15T13:26:09.630Z,5.77
2017-12-15T13:27:09.557Z,5.78
2017-12-15T13:29:02.826Z,5.78
2017-12-15T13:30:02.741Z,5.63
2017-12-15T13:31:55.984Z,5.49
2017-12-15T13:32:55.912Z,5.60
2017-12-15T13:34:49.186Z,5.49
2017-12-15T13:35:49.101Z,5.59
2017-12-15T13:37:42.336Z,5.54
2017-12-15T13:38:42.273Z,5.49
2017-12-15T13:40:35.529Z,5.44
2017-12-15T13:41:35.438Z,5.27
2017-12-15T13:43:28.719Z,5.31
2017-12-15T13:44:28.610Z,5.23
2017-12-15T13:46:21.867Z,5.30
2017-12-15T13:47:21.797Z,5.28
2017-12-15T13:49:15.062Z,5.26
2017-12-15T13:50:14.971Z,5.24
2017-12-15T13:52:08.244Z,5.20
2017-12-15T13:53:08.172Z,5.24
2017-12-15T13:55:01.405Z,5.26
2017-12-15T13:56:01.329Z,5.26
2017-12-15T13:57:54.565Z,5.27
2017-12-15T13:58:54.491Z,5.30
2017-12-15T14:00:47.756Z,5.24
2017-12-15T14:01:47.668Z,5.18
2017-12-15T14:03:40.950Z,5.30
2017-12-15T14:04:40.840Z,5.31
2017-12-15T14:06:34.099Z,5.26
2017-12-15T14:07:34.028Z,5.30
2017-12-15T14:09:27.393Z,5.30
2017-12-15T14:10:27.303Z,5.39
2017-12-15T14:12:20.553Z,5.30
2017-12-15T14:13:20.480Z,5.30
2017-12-15T14:15:13.761Z,5.34
2017-12-15T14:16:13.665Z,5.48
2017-12-15T14:18:06.909Z,5.49
2017-12-15T14:19:06.838Z,5.48
2017-12-15T14:21:00.103Z,5.44
2017-12-15T14:22:00.010Z,5.41
2017-12-15T14:23:53.275Z,5.44
2017-12-15T14:24:53.184Z,5.44
2017-12-15T14:26:46.436Z,5.45
2017-12-15T14:27:46.355Z,5.41
2017-12-15T14:29:39.621Z,5.46
2017-12-15T14:30:39.531Z,5.26
2017-12-15T14:32:32.773Z,5.33
2017-12-15T14:33:32.703Z,5.30
2017-12-15T14:35:25.967Z,5.26
2017-12-15T14:36:25.875Z,5.28
2017-12-15T14:38:19.129Z,5.21
2017-12-15T14:39:19.059Z,5.27
2017-12-15T14:41:12.322Z,5.28
2017-12-15T14:42:12.233Z,5.33
2017-12-15T14:44:05.501Z,5.39
2017-12-15T14:45:05.406Z,5.41
2017-12-15T14:46:58.650Z,5.34
2017-12-15T14:47:58.579Z,5.27
2017-12-15T14:49:51.845Z,5.26
2017-12-15T14:50:51.753Z,5.26
2017-12-15T14:52:45.008Z,5.27
2017-12-15T14:53:44.936Z,5.26
2017-12-15T14:55:38.235Z,5.13
2017-12-15T14:56:38.131Z,5.08
2017-12-15T14:58:31.387Z,5.21
2017-12-15T14:59:31.312Z,5.20
2017-12-15T15:01:24.605Z,5.21
2017-12-15T15:02:24.515Z,5.23
2017-12-15T15:04:17.777Z,5.24
2017-12-15T15:05:17.716Z,5.23
2017-12-15T15:07:10.964Z,5.21
2017-12-15T15:08:10.894Z,5.18
2017-12-15T15:10:04.159Z,5.24
2017-12-15T15:11:04.065Z,5.21
2017-12-15T15:12:57.469Z,5.23
2017-12-15T15:13:57.312Z,5.21
2017-12-15T15:15:50.576Z,5.26
2017-12-15T15:16:50.486Z,5.28
2017-12-15T15:18:43.744Z,5.23
2017-12-15T15:19:43.680Z,5.21
2017-12-15T15:21:36.936Z,5.21
2017-12-15T15:22:36.845Z,5.20
2017-12-15T15:24:30.110Z,5.21
2017-12-15T15:25:30.020Z,5.13
2017-12-15T15:27:23.265Z,5.21
2017-12-15T15:28:23.192Z,5.21
2017-12-15T15:30:16.463Z,5.13
2017-12-15T15:31:16.375Z,5.18
2017-12-15T15:33:09.623Z,5.18
2017-12-15T15:34:09.557Z,5.21
2017-12-15T15:36:02.815Z,5.21
2017-12-15T15:37:02.758Z,5.23
2017-12-15T15:38:55.984Z,5.20
2017-12-15T15:39:55.900Z,5.23
2017-12-15T15:41:49.197Z,5.16
2017-12-15T15:42:49.094Z,5.18
2017-12-15T15:44:42.357Z,5.23
2017-12-15T15:45:42.266Z,5.28
2017-12-15T15:47:35.511Z,5.23
2017-12-15T15:48:35.437Z,5.28
2017-12-15T15:50:28.719Z,5.31
2017-12-15T15:51:28.631Z,5.28
2017-12-15T15:53:21.874Z,5.37
2017-12-15T15:54:21.803Z,5.30
2017-12-15T15:56:15.090Z,5.30
2017-12-15T15:57:14.974Z,5.30
2017-12-15T15:59:07.888Z,5.28
2017-12-15T16:00:07.658Z,5.28
2017-12-15T16:02:00.925Z,5.24
2017-12-15T16:03:00.830Z,5.24
2017-12-15T16:04:54.130Z,5.24
2017-12-15T16:05:54.039Z,5.24
2017-12-15T16:07:47.381Z,5.30
2017-12-15T16:08:47.321Z,5.24
2017-12-15T16:10:40.581Z,5.23
2017-12-15T16:11:40.483Z,5.30
2017-12-15T16:13:33.779Z,5.31
2017-12-15T16:14:33.701Z,5.30
2017-12-15T16:16:26.965Z,5.34
2017-12-15T16:17:26.875Z,5.33
2017-12-15T16:19:20.140Z,5.28
2017-12-15T16:20:20.057Z,5.36
2017-12-15T16:22:13.423Z,5.34
2017-12-15T16:23:13.334Z,5.36
2017-12-15T16:25:06.595Z,5.39
2017-12-15T16:26:06.513Z,5.30
2017-12-15T16:27:59.750Z,5.28
2017-12-15T16:28:59.679Z,5.33
2017-12-15T16:30:52.943Z,5.24
2017-12-15T16:31:52.853Z,5.34
2017-12-15T16:33:46.129Z,5.33
2017-12-15T16:34:46.071Z,5.33
2017-12-15T16:36:39.401Z,5.34
2017-12-15T16:37:39.309Z,5.36
2017-12-15T16:39:32.557Z,5.45
2017-12-15T16:40:32.484Z,5.45
2017-12-15T16:42:25.798Z,5.42
2017-12-15T16:43:25.669Z,5.45
2017-12-15T16:45:18.921Z,5.42
2017-12-15T16:46:18.837Z,5.44
2017-12-15T16:48:12.123Z,5.45
2017-12-15T16:49:12.006Z,5.31
2017-12-15T16:51:05.296Z,5.45
2017-12-15T16:52:05.200Z,5.42
2017-12-15T16:53:58.486Z,5.39
2017-12-15T16:54:58.423Z,5.41
2017-12-15T16:56:51.696Z,5.41
2017-12-15T16:57:51.606Z,5.42
2017-12-15T16:59:44.850Z,5.34
2017-12-15T17:00:44.783Z,5.30
2017-12-15T17:02:37.571Z,5.16
2017-12-15T17:03:37.482Z,5.23
2017-12-15T17:05:30.756Z,5.23
2017-12-15T17:06:30.666Z,5.20
2017-12-15T17:08:23.918Z,5.15
2017-12-15T17:09:23.838Z,5.18
2017-12-15T17:11:17.111Z,5.21
2017-12-15T17:12:17.020Z,5.18
2017-12-15T17:14:10.274Z,5.21
2017-12-15T17:15:10.193Z,5.18
2017-12-15T17:17:03.513Z,5.21
2017-12-15T17:18:03.380Z,5.24
2017-12-15T17:19:56.628Z,5.18
2017-12-15T17:20:56.559Z,5.18
2017-12-15T17:22:49.822Z,5.21
2017-12-15T17:23:49.739Z,5.15
2017-12-15T17:25:43.018Z,5.21
2017-12-15T17:26:42.945Z,5.16
2017-12-15T17:28:36.172Z,5.16
2017-12-15T17:29:36.095Z,5.13
2017-12-15T17:31:29.424Z,5.13
2017-12-15T17:32:29.313Z,5.10
2017-12-15T17:34:22.627Z,5.12
2017-12-15T17:35:22.552Z,5.08
2017-12-15T17:37:15.813Z,5.16
2017-12-15T17:38:15.725Z,5.15
2017-12-15T17:40:08.970Z,5.16
2017-12-15T17:41:08.897Z,5.16
2017-12-15T17:43:02.161Z,5.20
2017-12-15T17:44:02.075Z,5.18
2017-12-15T17:45:55.400Z,5.12
2017-12-15T17:46:55.303Z,5.18
2017-12-15T17:48:48.556Z,5.16
2017-12-15T17:49:48.487Z,5.13
2017-12-15T17:51:41.758Z,5.16
2017-12-15T17:52:41.670Z,5.18
2017-12-15T17:54:34.924Z,5.21
2017-12-15T17:55:34.844Z,5.18
2017-12-15T17:57:28.114Z,5.16
2017-12-15T17:58:28.029Z,5.18
2017-12-15T18:00:21.270Z,5.08
2017-12-15T18:01:21.205Z,5.06
2017-12-15T18:03:14.457Z,4.91
2017-12-15T18:04:14.371Z,4.83
2017-12-15T18:06:07.688Z,4.84
2017-12-15T18:07:07.543Z,4.97
2017-12-15T18:09:00.785Z,4.88
2017-12-15T18:10:00.724Z,4.94
2017-12-15T18:11:53.990Z,4.97
2017-12-15T18:12:53.892Z,4.92
2017-12-15T18:14:47.988Z,4.92
2017-12-15T18:15:47.915Z,4.98
2017-12-15T18:17:41.176Z,4.90
2017-12-15T18:18:41.084Z,4.87
2017-12-15T18:20:34.338Z,4.90
2017-12-15T18:21:34.266Z,4.90
2017-12-15T18:23:27.536Z,4.90
2017-12-15T18:24:27.446Z,4.94
2017-12-15T18:26:20.718Z,4.92
2017-12-15T18:27:20.628Z,4.97
2017-12-15T18:29:13.875Z,4.94
2017-12-15T18:30:13.802Z,4.91
2017-12-15T18:32:07.145Z,4.92
2017-12-15T18:33:07.039Z,4.91
2017-12-15T18:35:00.315Z,4.98
2017-12-15T18:36:00.239Z,4.92
2017-12-15T18:37:53.514Z,5.02
2017-12-15T18:38:53.425Z,5.03
2017-12-15T18:40:46.680Z,4.97
2017-12-15T18:41:46.603Z,5.08
2017-12-15T18:43:39.876Z,4.95
2017-12-15T18:44:39.785Z,4.95
2017-12-15T18:46:33.092Z,5.02
2017-12-15T18:47:33.011Z,5.00
2017-12-15T18:49:26.272Z,5.02
2017-12-15T18:50:26.181Z,5.00
2017-12-15T18:52:19.467Z,5.10
2017-12-15T18:53:19.380Z,5.06
2017-12-15T18:55:12.634Z,5.05
2017-12-15T18:56:12.565Z,5.00
2017-12-15T18:58:05.837Z,5.06
2017-12-15T18:59:05.747Z,5.02
2017-12-15T19:00:59.003Z,5.06
2017-12-15T19:01:58.932Z,4.97
2017-12-15T19:03:52.206Z,5.08
2017-12-15T19:04:52.122Z,4.98
2017-12-15T19:06:45.400Z,5.03
2017-12-15T19:07:45.308Z,5.09
2017-12-15T19:09:38.557Z,5.18
2017-12-15T19:10:38.488Z,5.12
2017-12-15T19:12:31.797Z,5.23